createdAt,value
2023-02-11T00:02:10.108Z,27.00
2023-02-11T00:05:12.624Z,26.58
2023-02-11T00:08:17.076Z,26.80
2023-02-11T00:11:22.171Z,27.20
2023-02-11T00:14:24.747Z,28.67
2023-02-11T00:17:28.312Z,29.70
2023-02-11T00:20:30.626Z,29.80
2023-02-11T00:23:33.110Z,26.17
2023-02-11T00:26:36.581Z,26.45
2023-02-11T00:29:39.793Z,26.77
2023-02-11T00:32:43.038Z,24.23
2023-02-11T00:35:45.554Z,27.23
2023-02-11T00:38:49.202Z,28.75
2023-02-11T00:41:51.972Z,27.98
2023-02-11T00:44:54.512Z,28.63
2023-02-11T00:47:57.504Z,26.08
2023-02-11T00:50:59.957Z,21.87
2023-02-11T00:54:02.458Z,26.10
2023-02-11T00:57:05.022Z,28.63
2023-02-11T01:00:09.096Z,27.48
2023-02-11T01:06:14.416Z,26.95
2023-02-11T01:09:17.109Z,26.65
2023-02-11T01:12:19.833Z,25.70
2023-02-11T01:15:23.117Z,26.55
2023-02-11T01:18:25.929Z,27.70
2023-02-11T01:21:28.357Z,27.77
2023-02-11T01:24:31.008Z,26.88
2023-02-11T01:27:34.849Z,27.38
2023-02-11T01:30:37.539Z,29.95
2023-02-11T01:33:40.323Z,26.38
2023-02-11T01:36:43.425Z,27.02
2023-02-11T01:39:46.058Z,22.63
2023-02-11T01:42:50.962Z,28.35
2023-02-11T01:46:36.379Z,27.17
2023-02-11T01:49:45.658Z,26.85
2023-02-11T01:52:48.242Z,25.25
2023-02-11T01:56:11.441Z,25.10
2023-02-11T01:59:24.648Z,26.00
2023-02-11T02:02:35.566Z,25.60
2023-02-11T02:06:08.882Z,24.33
2023-02-11T02:09:26.674Z,23.85
2023-02-11T02:12:31.143Z,25.23
2023-02-11T02:15:39.369Z,22.65
2023-02-11T02:19:00.435Z,24.35
2023-02-11T02:22:30.777Z,23.00
2023-02-11T02:25:48.325Z,22.73
2023-02-11T02:29:17.206Z,22.58
2023-02-11T02:32:47.184Z,23.27
2023-02-11T02:36:02.325Z,20.45
2023-02-11T02:39:12.370Z,23.98
2023-02-11T02:42:15.697Z,22.65
2023-02-11T02:45:18.447Z,22.67
2023-02-11T02:48:33.007Z,20.83
2023-02-11T02:51:43.696Z,24.05
2023-02-11T02:55:14.478Z,21.45
2023-02-11T02:58:31.863Z,21.98
2023-02-11T03:01:34.433Z,22.83
2023-02-11T03:05:03.684Z,22.30
2023-02-11T03:08:10.260Z,21.45
2023-02-11T03:11:13.270Z,22.10
2023-02-11T03:14:19.155Z,22.33
2023-02-11T03:17:22.658Z,21.65
2023-02-11T03:20:25.971Z,20.90
2023-02-11T03:23:38.233Z,22.33
2023-02-11T03:26:53.021Z,22.52
2023-02-11T03:30:01.976Z,22.10
2023-02-11T03:33:18.285Z,20.33
2023-02-11T03:36:25.603Z,22.40
2023-02-11T03:39:40.835Z,20.33
2023-02-11T03:42:50.781Z,20.20
2023-02-11T03:45:54.657Z,22.10
2023-02-11T03:49:10.246Z,21.85
2023-02-11T03:52:14.202Z,21.73
2023-02-11T03:55:20.431Z,21.38
2023-02-11T03:58:23.359Z,21.90
2023-02-11T04:01:25.869Z,22.70
2023-02-11T04:04:28.834Z,22.90
2023-02-11T04:07:31.301Z,24.30
2023-02-11T04:10:33.861Z,25.20
2023-02-11T04:13:36.349Z,25.08
2023-02-11T04:16:38.768Z,24.52
2023-02-11T04:19:41.257Z,23.75
2023-02-11T04:22:43.657Z,26.35
2023-02-11T04:25:46.013Z,23.83
2023-02-11T04:28:49.135Z,20.63
2023-02-11T04:31:52.152Z,25.33
2023-02-11T04:34:55.469Z,20.67
2023-02-11T04:37:58.041Z,26.17
2023-02-11T04:41:00.675Z,27.92
2023-02-11T04:44:03.688Z,27.08
2023-02-11T04:47:06.288Z,20.83
2023-02-11T04:50:08.857Z,27.38
2023-02-11T04:53:11.373Z,25.73
2023-02-11T04:56:13.975Z,29.02
2023-02-11T04:59:16.562Z,29.17
2023-02-11T05:02:19.255Z,27.45
2023-02-11T05:05:21.892Z,28.23
2023-02-11T05:08:24.149Z,29.45
2023-02-11T05:11:26.904Z,30.27
2023-02-11T05:14:29.410Z,31.80
2023-02-11T05:17:31.774Z,31.80
2023-02-11T05:20:34.364Z,32.38
2023-02-11T05:23:37.223Z,32.17
2023-02-11T05:26:39.763Z,31.73
2023-02-11T05:29:42.596Z,32.50
2023-02-11T05:32:45.019Z,31.83
2023-02-11T05:35:47.687Z,33.83
2023-02-11T05:38:51.070Z,33.38
2023-02-11T05:41:53.528Z,29.30
2023-02-11T05:44:55.864Z,34.67
2023-02-11T05:47:58.689Z,37.10
2023-02-11T05:51:01.289Z,35.80
2023-02-11T05:54:03.879Z,35.53
2023-02-11T05:57:06.397Z,35.08
2023-02-11T06:00:09.817Z,32.67
2023-02-11T06:03:14.809Z,34.25
2023-02-11T06:06:17.748Z,38.05
2023-02-11T06:09:20.222Z,29.00
2023-02-11T06:12:22.710Z,33.78
2023-02-11T06:15:25.279Z,38.10
2023-02-11T06:18:27.829Z,37.40
2023-02-11T06:21:42.733Z,34.72
2023-02-11T06:25:00.426Z,34.38
2023-02-11T06:28:04.216Z,35.35
2023-02-11T06:31:07.737Z,36.20
2023-02-11T06:34:10.591Z,38.05
2023-02-11T06:37:13.134Z,37.45
2023-02-11T06:40:15.619Z,36.60
2023-02-11T06:43:17.967Z,35.47
2023-02-11T06:46:20.409Z,37.17
2023-02-11T06:49:23.279Z,36.50
2023-02-11T06:52:25.949Z,35.78
2023-02-11T06:55:28.437Z,35.88
2023-02-11T06:58:30.981Z,37.17
2023-02-11T07:01:33.359Z,36.05
2023-02-11T07:04:35.796Z,39.25
2023-02-11T07:07:38.128Z,38.15
2023-02-11T07:10:40.955Z,38.92
2023-02-11T07:13:43.835Z,31.73
2023-02-11T07:16:46.815Z,37.80
2023-02-11T07:19:49.622Z,31.23
2023-02-11T07:22:52.048Z,38.92
2023-02-11T07:25:54.416Z,37.72
2023-02-11T07:28:57.006Z,39.65
2023-02-11T07:31:59.601Z,37.63
2023-02-11T07:35:05.036Z,40.90
2023-02-11T07:38:07.588Z,38.30
2023-02-11T07:41:12.691Z,37.75
2023-02-11T07:44:15.465Z,39.17
2023-02-11T07:47:17.894Z,39.30
2023-02-11T07:50:20.217Z,40.90
2023-02-11T07:53:22.672Z,38.00
2023-02-11T07:56:25.261Z,39.42
2023-02-11T07:59:27.794Z,38.58
2023-02-11T08:02:30.426Z,42.80
2023-02-11T08:05:33.171Z,36.22
2023-02-11T08:08:36.910Z,34.45
2023-02-11T08:11:39.350Z,36.35
2023-02-11T08:14:41.958Z,37.78
2023-02-11T08:17:44.352Z,33.80
2023-02-11T08:20:46.914Z,36.75
2023-02-11T08:23:49.985Z,36.88
2023-02-11T08:26:52.372Z,36.45
2023-02-11T08:29:55.728Z,37.00
2023-02-11T08:32:58.497Z,35.70
2023-02-11T08:36:02.051Z,34.97
2023-02-11T08:39:22.184Z,42.47
2023-02-11T08:42:25.465Z,40.20
2023-02-11T08:45:28.257Z,38.43
2023-02-11T08:48:31.036Z,38.10
2023-02-11T08:51:33.752Z,39.67
2023-02-11T08:54:36.712Z,38.88
2023-02-11T08:57:39.453Z,33.22
2023-02-11T09:00:44.148Z,35.92
2023-02-11T09:03:46.997Z,38.25
2023-02-11T09:06:49.831Z,40.45
2023-02-11T09:09:52.409Z,33.47
2023-02-11T09:12:54.876Z,40.80
2023-02-11T09:15:57.793Z,41.97
2023-02-11T09:19:01.917Z,37.30
2023-02-11T09:22:04.506Z,40.10
2023-02-11T09:25:07.318Z,40.35
2023-02-11T09:28:10.028Z,41.10
2023-02-11T09:31:16.399Z,38.42
2023-02-11T09:34:19.017Z,38.83
2023-02-11T09:37:21.429Z,34.80
2023-02-11T09:40:24.053Z,38.50
2023-02-11T09:43:37.550Z,41.25
2023-02-11T09:46:42.807Z,32.70
2023-02-11T09:49:47.958Z,40.08
2023-02-11T09:53:11.459Z,40.92
2023-02-11T09:56:15.514Z,41.60
2023-02-11T09:59:19.762Z,40.88
2023-02-11T10:02:27.986Z,43.30
2023-02-11T10:06:05.699Z,41.35
2023-02-11T10:09:08.017Z,44.40
2023-02-11T10:12:34.568Z,43.00
2023-02-11T10:15:44.161Z,46.58
2023-02-11T10:19:07.407Z,45.25
2023-02-11T10:22:09.968Z,47.67
2023-02-11T10:25:37.727Z,44.55
2023-02-11T10:28:41.047Z,44.50
2023-02-11T10:31:44.508Z,42.33
2023-02-11T10:34:47.162Z,47.58
2023-02-11T10:37:50.177Z,49.13
2023-02-11T10:40:53.131Z,34.80
2023-02-11T10:43:56.297Z,47.17
2023-02-11T10:47:02.731Z,45.22
2023-02-11T10:50:25.750Z,44.33
2023-02-11T10:53:28.312Z,41.60
2023-02-11T10:56:33.744Z,42.83
2023-02-11T10:59:40.477Z,41.25
2023-02-11T11:02:44.740Z,46.67
2023-02-11T11:05:52.433Z,48.95
2023-02-11T11:08:56.298Z,44.53
2023-02-11T11:11:58.711Z,45.97
2023-02-11T11:15:19.416Z,45.65
2023-02-11T11:18:23.473Z,44.67
2023-02-11T11:21:29.752Z,45.75
2023-02-11T11:24:34.730Z,45.08
2023-02-11T11:27:37.919Z,47.00
2023-02-11T11:30:43.003Z,45.67
2023-02-11T11:33:46.887Z,40.50
2023-02-11T11:36:51.180Z,43.22
2023-02-11T11:40:05.055Z,43.88
2023-02-11T11:43:23.357Z,37.20
2023-02-11T11:46:39.190Z,39.40
2023-02-11T11:50:09.435Z,39.35
2023-02-11T11:53:16.972Z,36.47
2023-02-11T11:56:28.923Z,37.15
2023-02-11T11:59:32.884Z,36.80
2023-02-11T12:02:38.217Z,38.22
2023-02-11T12:06:07.781Z,34.17
2023-02-11T12:09:30.774Z,37.42
2023-02-11T12:12:50.777Z,36.47
2023-02-11T12:16:20.185Z,32.13
2023-02-11T12:19:43.818Z,33.80
2023-02-11T12:22:52.964Z,29.10
2023-02-11T12:26:16.164Z,33.17
2023-02-11T12:29:44.972Z,32.17
2023-02-11T12:32:56.547Z,30.13
2023-02-11T12:36:28.402Z,30.58
2023-02-11T12:39:52.768Z,29.60
2023-02-11T12:43:16.905Z,30.15
2023-02-11T12:46:23.331Z,23.05
2023-02-11T12:49:47.551Z,29.25
2023-02-11T12:52:54.417Z,27.65
2023-02-11T12:56:02.574Z,25.23
2023-02-11T12:59:08.036Z,27.27
2023-02-11T13:02:23.029Z,25.15
2023-02-11T13:05:27.101Z,23.67
2023-02-11T13:08:40.401Z,25.83
2023-02-11T13:11:52.150Z,23.67
2023-02-11T13:14:59.364Z,23.63
2023-02-11T13:18:08.731Z,23.63
2023-02-11T13:21:17.978Z,22.30
2023-02-11T13:24:20.501Z,22.65
2023-02-11T13:27:31.338Z,21.17
2023-02-11T13:30:39.660Z,25.63
2023-02-11T13:33:46.057Z,21.95
2023-02-11T13:36:56.551Z,22.08
2023-02-11T13:40:06.871Z,20.67
2023-02-11T13:43:24.159Z,22.85
2023-02-11T13:46:27.532Z,19.23
2023-02-11T13:49:35.767Z,16.88
2023-02-11T13:52:39.188Z,19.48
2023-02-11T13:55:44.707Z,19.48
2023-02-11T13:58:50.204Z,26.67
2023-02-11T14:02:40.359Z,20.45
2023-02-11T14:06:26.986Z,20.80
2023-02-11T14:09:39.015Z,19.45
2023-02-11T14:12:41.374Z,20.63
2023-02-11T14:15:47.094Z,17.88
2023-02-11T14:18:49.456Z,20.83
2023-02-11T14:21:52.464Z,20.50
2023-02-11T14:25:06.614Z,15.27
2023-02-11T14:28:22.713Z,19.38
2023-02-11T14:31:28.458Z,21.60
2023-02-11T14:34:54.691Z,20.08
2023-02-11T14:38:16.429Z,19.60
2023-02-11T14:41:22.389Z,21.02
2023-02-11T14:44:29.483Z,20.30
2023-02-11T14:47:41.675Z,18.45
2023-02-11T14:50:51.089Z,18.17
2023-02-11T14:53:59.538Z,20.98
2023-02-11T14:57:19.552Z,19.00
2023-02-11T15:00:27.561Z,17.52
2023-02-11T15:03:43.438Z,18.85
2023-02-11T15:06:49.930Z,19.08
2023-02-11T15:09:54.274Z,21.48
2023-02-11T15:12:57.338Z,17.75
2023-02-11T15:16:11.265Z,17.80
2023-02-11T15:19:36.118Z,18.42
2023-02-11T15:22:39.502Z,17.50
2023-02-11T15:25:51.463Z,20.33
2023-02-11T15:28:53.979Z,24.67
2023-02-11T15:32:29.127Z,23.80
2023-02-11T15:35:36.868Z,22.20
2023-02-11T15:38:41.155Z,19.23
2023-02-11T15:41:44.578Z,18.83
2023-02-11T15:44:56.388Z,16.08
2023-02-11T15:48:17.973Z,25.80
2023-02-11T15:51:29.779Z,20.73
2023-02-11T15:54:33.016Z,19.88
2023-02-11T15:57:37.073Z,16.57
2023-02-11T16:00:48.406Z,24.92
2023-02-11T16:03:51.930Z,18.77
2023-02-11T16:06:55.941Z,19.67
2023-02-11T16:09:59.331Z,17.88
2023-02-11T16:13:08.239Z,19.60
2023-02-11T16:16:25.345Z,19.75
2023-02-11T16:19:29.114Z,20.48
2023-02-11T16:22:36.533Z,20.42
2023-02-11T16:25:43.135Z,31.60
2023-02-11T16:28:46.019Z,23.30
2023-02-11T16:31:50.521Z,22.35
2023-02-11T16:34:55.574Z,19.65
2023-02-11T16:37:58.728Z,20.10
2023-02-11T16:41:01.660Z,21.88
2023-02-11T16:44:05.040Z,21.75
2023-02-11T16:47:11.405Z,16.42
2023-02-11T16:50:22.870Z,19.08
2023-02-11T16:53:26.149Z,20.42
2023-02-11T16:56:29.450Z,15.48
2023-02-11T16:59:32.323Z,19.38
2023-02-11T17:02:36.894Z,19.92
2023-02-11T17:05:58.058Z,21.50
2023-02-11T17:09:00.861Z,21.17
2023-02-11T17:12:03.594Z,19.38
2023-02-11T17:15:07.653Z,19.77
2023-02-11T17:18:14.447Z,19.25
2023-02-11T17:21:17.657Z,17.00
2023-02-11T17:24:22.010Z,13.73
2023-02-11T17:27:24.930Z,14.57
2023-02-11T17:30:27.778Z,11.93
2023-02-11T17:33:30.425Z,13.63
2023-02-11T17:36:33.440Z,14.38
2023-02-11T17:39:37.172Z,15.53
2023-02-11T17:42:39.605Z,14.90
2023-02-11T17:45:42.959Z,13.30
2023-02-11T17:48:45.588Z,15.70
2023-02-11T17:51:48.067Z,17.20
2023-02-11T17:54:51.662Z,13.32
2023-02-11T17:57:54.089Z,15.70
2023-02-11T18:00:59.369Z,14.32
2023-02-11T18:04:02.099Z,16.45
2023-02-11T18:07:04.917Z,17.77
2023-02-11T18:10:08.760Z,20.00
2023-02-11T18:13:11.265Z,20.27
2023-02-11T18:16:15.983Z,23.17
2023-02-11T18:19:19.303Z,25.27
2023-02-11T18:22:21.744Z,20.77
2023-02-11T18:25:24.326Z,21.20
2023-02-11T18:28:26.780Z,16.63
2023-02-11T18:31:29.391Z,18.45
2023-02-11T18:34:33.234Z,16.88
2023-02-11T18:37:35.972Z,17.10
2023-02-11T18:40:41.590Z,16.23
2023-02-11T18:43:44.011Z,10.88
2023-02-11T18:46:46.860Z,8.13
2023-02-11T18:49:49.378Z,9.65
2023-02-11T18:52:51.866Z,10.35
2023-02-11T18:55:55.174Z,9.05
2023-02-11T18:59:01.353Z,7.43
2023-02-11T19:02:04.015Z,6.88
2023-02-11T19:05:06.807Z,3.55
2023-02-11T19:08:09.301Z,3.30
2023-02-11T19:11:12.066Z,3.38
2023-02-11T19:14:16.089Z,3.75
2023-02-11T19:20:21.172Z,2.78
2023-02-11T19:23:27.953Z,2.30
2023-02-11T19:26:31.680Z,2.33
2023-02-11T19:29:38.546Z,2.30
2023-02-11T19:32:43.188Z,2.00
2023-02-11T19:35:48.538Z,2.17
2023-02-11T19:38:55.360Z,2.30
2023-02-11T19:41:59.148Z,2.13
2023-02-11T19:45:01.744Z,2.28
2023-02-11T19:48:04.318Z,1.80
2023-02-11T19:51:13.308Z,1.70
2023-02-11T19:54:15.854Z,1.95
2023-02-11T19:57:18.346Z,1.48
2023-02-11T20:00:21.341Z,1.77
2023-02-11T20:03:23.701Z,2.05
2023-02-11T20:06:29.186Z,1.55
2023-02-11T20:09:32.064Z,1.80
2023-02-11T20:12:34.486Z,3.65
2023-02-11T20:15:36.850Z,3.90
2023-02-11T20:18:39.925Z,3.97
2023-02-11T20:21:43.908Z,5.83
2023-02-11T20:24:47.887Z,12.00
2023-02-11T20:27:50.371Z,13.88
2023-02-11T20:30:57.443Z,6.53
2023-02-11T20:34:01.307Z,3.33
2023-02-11T20:37:04.196Z,2.47
2023-02-11T20:40:07.706Z,3.47
2023-02-11T20:43:10.210Z,2.83
2023-02-11T20:46:14.494Z,2.85
2023-02-11T20:49:21.035Z,2.30
2023-02-11T20:52:23.423Z,2.13
2023-02-11T20:55:25.823Z,2.00
2023-02-11T20:58:28.085Z,2.13
2023-02-11T21:01:33.043Z,2.28
2023-02-11T21:04:35.522Z,2.22
2023-02-11T21:07:39.164Z,1.75
2023-02-11T21:10:41.752Z,1.80
2023-02-11T21:13:45.436Z,2.45
2023-02-11T21:19:51.330Z,1.50
2023-02-11T21:22:53.953Z,1.95
2023-02-11T21:25:57.278Z,2.50
2023-02-11T21:28:59.749Z,1.25
2023-02-11T21:32:02.320Z,2.47
2023-02-11T21:35:04.835Z,2.35
2023-02-11T21:38:07.088Z,2.67
2023-02-11T21:41:09.668Z,2.35
2023-02-11T21:44:12.094Z,2.50
2023-02-11T21:47:14.369Z,2.03
2023-02-11T21:50:16.944Z,2.60
2023-02-11T21:53:19.806Z,2.60
2023-02-11T21:56:22.200Z,2.38
2023-02-11T21:59:24.531Z,1.85
2023-02-11T22:02:26.915Z,2.00
2023-02-11T22:05:29.224Z,2.13
2023-02-11T22:08:31.522Z,2.28
2023-02-11T22:11:33.922Z,1.50
2023-02-11T22:14:37.227Z,2.42
2023-02-11T22:17:39.541Z,1.70
2023-02-11T22:20:41.862Z,2.10
2023-02-11T22:23:44.769Z,2.53
2023-02-11T22:26:47.017Z,3.05
2023-02-11T22:29:49.351Z,2.83
2023-02-11T22:32:51.918Z,2.78
2023-02-11T22:36:00.778Z,2.85
2023-02-11T22:39:08.517Z,3.20
2023-02-11T22:42:11.016Z,3.33
2023-02-11T22:45:13.445Z,3.55
2023-02-11T22:48:15.768Z,2.60
2023-02-11T22:51:23.372Z,2.92
2023-02-11T22:54:26.227Z,2.15
2023-02-11T22:57:29.548Z,2.13
2023-02-11T23:00:40.353Z,2.40
2023-02-11T23:03:43.625Z,2.78
2023-02-11T23:06:47.739Z,2.03
2023-02-11T23:09:50.361Z,2.22
2023-02-11T23:12:52.767Z,3.42
2023-02-11T23:15:55.594Z,3.33
2023-02-11T23:19:04.175Z,2.92
2023-02-11T23:22:06.813Z,4.45
2023-02-11T23:25:09.174Z,3.90
2023-02-11T23:28:12.677Z,4.55
2023-02-11T23:31:16.255Z,4.25
2023-02-11T23:34:24.098Z,4.60
2023-02-11T23:37:26.878Z,5.10
2023-02-11T23:40:29.269Z,5.18
2023-02-11T23:43:31.720Z,4.82
2023-02-11T23:46:34.402Z,5.05
2023-02-11T23:49:36.840Z,5.38
2023-02-11T23:52:39.293Z,4.55
2023-02-11T23:55:43.449Z,4.07
2023-02-11T23:58:48.771Z,4.43
